sensor_id;sensor_type;location;lat;lon;timestamp;P1;durP1;ratioP1;P2;durP2;ratioP2
1837;SDS011;918;50.796;6.772;2023-05-07T00:00:41;6.50;;;5.20;;
1837;SDS011;918;50.796;6.772;2023-05-07T00:03:07;5.00;;;4.70;;
1837;SDS011;918;50.796;6.772;2023-05-07T00:05:32;6.70;;;6.20;;
1837;SDS011;918;50.796;6.772;2023-05-07T00:07:57;5.40;;;5.10;;
1837;SDS011;918;50.796;6.772;2023-05-07T00:10:23;4.67;;;4.37;;
1837;SDS011;918;50.796;6.772;2023-05-07T00:12:48;6.30;;;5.90;;
1837;SDS011;918;50.796;6.772;2023-05-07T00:15:13;5.20;;;4.80;;
1837;SDS011;918;50.796;6.772;2023-05-07T00:17:38;5.47;;;5.07;;
1837;SDS011;918;50.796;6.772;2023-05-07T00:20:04;6.37;;;5.77;;
1837;SDS011;918;50.796;6.772;2023-05-07T00:22:30;6.93;;;6.40;;
1837;SDS011;918;50.796;6.772;2023-05-07T00:24:55;11.23;;;7.33;;
1837;SDS011;918;50.796;6.772;2023-05-07T00:27:21;7.93;;;7.30;;
1837;SDS011;918;50.796;6.772;2023-05-07T00:29:47;10.30;;;7.23;;
1837;SDS011;918;50.796;6.772;2023-05-07T00:32:12;7.83;;;7.13;;
1837;SDS011;918;50.796;6.772;2023-05-07T00:34:37;6.97;;;6.23;;
1837;SDS011;918;50.796;6.772;2023-05-07T00:37:04;6.20;;;5.80;;
1837;SDS011;918;50.796;6.772;2023-05-07T00:39:29;6.70;;;6.20;;
1837;SDS011;918;50.796;6.772;2023-05-07T00:41:55;7.07;;;6.57;;
1837;SDS011;918;50.796;6.772;2023-05-07T00:44:20;6.97;;;6.47;;
1837;SDS011;918;50.796;6.772;2023-05-07T00:46:45;7.10;;;6.50;;
1837;SDS011;918;50.796;6.772;2023-05-07T00:49:13;5.67;;;5.27;;
1837;SDS011;918;50.796;6.772;2023-05-07T00:51:39;5.93;;;5.33;;
1837;SDS011;918;50.796;6.772;2023-05-07T00:54:04;5.47;;;5.03;;
1837;SDS011;918;50.796;6.772;2023-05-07T00:56:30;6.30;;;5.90;;
1837;SDS011;918;50.796;6.772;2023-05-07T00:58:56;6.17;;;5.67;;
1837;SDS011;918;50.796;6.772;2023-05-07T01:01:21;6.47;;;5.97;;
1837;SDS011;918;50.796;6.772;2023-05-07T01:03:46;6.40;;;5.90;;
1837;SDS011;918;50.796;6.772;2023-05-07T01:06:12;5.87;;;5.47;;
1837;SDS011;918;50.796;6.772;2023-05-07T01:08:38;5.63;;;5.23;;
1837;SDS011;918;50.796;6.772;2023-05-07T01:11:04;6.10;;;5.50;;
1837;SDS011;918;50.796;6.772;2023-05-07T01:13:30;6.60;;;6.10;;
1837;SDS011;918;50.796;6.772;2023-05-07T01:15:56;6.70;;;6.20;;
1837;SDS011;918;50.796;6.772;2023-05-07T01:18:21;5.83;;;5.43;;
1837;SDS011;918;50.796;6.772;2023-05-07T01:20:47;6.77;;;6.17;;
1837;SDS011;918;50.796;6.772;2023-05-07T01:23:12;7.13;;;6.53;;
1837;SDS011;918;50.796;6.772;2023-05-07T01:25:37;7.30;;;6.60;;
1837;SDS011;918;50.796;6.772;2023-05-07T01:28:02;8.10;;;7.40;;
1837;SDS011;918;50.796;6.772;2023-05-07T01:30:28;7.90;;;7.30;;
1837;SDS011;918;50.796;6.772;2023-05-07T01:33:08;8.47;;;7.77;;
1837;SDS011;918;50.796;6.772;2023-05-07T01:35:38;7.80;;;7.20;;
1837;SDS011;918;50.796;6.772;2023-05-07T01:38:05;8.60;;;7.40;;
1837;SDS011;918;50.796;6.772;2023-05-07T01:40:32;9.40;;;8.50;;
1837;SDS011;918;50.796;6.772;2023-05-07T01:42:57;9.00;;;8.10;;
1837;SDS011;918;50.796;6.772;2023-05-07T01:45:23;8.93;;;8.03;;
1837;SDS011;918;50.796;6.772;2023-05-07T01:47:49;9.30;;;8.50;;
1837;SDS011;918;50.796;6.772;2023-05-07T01:50:15;9.10;;;8.30;;
1837;SDS011;918;50.796;6.772;2023-05-07T01:52:42;9.10;;;8.30;;
1837;SDS011;918;50.796;6.772;2023-05-07T01:55:07;8.90;;;8.10;;
1837;SDS011;918;50.796;6.772;2023-05-07T01:57:32;8.50;;;7.70;;
1837;SDS011;918;50.796;6.772;2023-05-07T01:59:58;8.67;;;7.97;;
1837;SDS011;918;50.796;6.772;2023-05-07T02:02:23;9.77;;;8.60;;
1837;SDS011;918;50.796;6.772;2023-05-07T02:04:48;8.87;;;8.07;;
1837;SDS011;918;50.796;6.772;2023-05-07T02:07:14;8.23;;;7.50;;
1837;SDS011;918;50.796;6.772;2023-05-07T02:09:39;8.20;;;7.50;;
1837;SDS011;918;50.796;6.772;2023-05-07T02:12:04;8.47;;;7.53;;
1837;SDS011;918;50.796;6.772;2023-05-07T02:14:30;8.40;;;7.60;;
1837;SDS011;918;50.796;6.772;2023-05-07T02:16:55;8.17;;;7.37;;
1837;SDS011;918;50.796;6.772;2023-05-07T02:19:20;9.03;;;8.13;;
1837;SDS011;918;50.796;6.772;2023-05-07T02:21:46;10.13;;;9.10;;
1837;SDS011;918;50.796;6.772;2023-05-07T02:24:11;10.10;;;8.33;;
1837;SDS011;918;50.796;6.772;2023-05-07T02:26:37;9.87;;;9.07;;
1837;SDS011;918;50.796;6.772;2023-05-07T02:29:02;9.17;;;8.27;;
1837;SDS011;918;50.796;6.772;2023-05-07T02:31:27;9.50;;;8.43;;
1837;SDS011;918;50.796;6.772;2023-05-07T02:33:52;8.40;;;7.70;;
1837;SDS011;918;50.796;6.772;2023-05-07T02:36:18;8.47;;;7.70;;
1837;SDS011;918;50.796;6.772;2023-05-07T02:38:43;8.80;;;7.80;;
1837;SDS011;918;50.796;6.772;2023-05-07T02:41:08;8.13;;;7.43;;
1837;SDS011;918;50.796;6.772;2023-05-07T02:43:33;9.03;;;8.23;;
1837;SDS011;918;50.796;6.772;2023-05-07T02:46:05;7.83;;;7.03;;
1837;SDS011;918;50.796;6.772;2023-05-07T02:48:31;7.47;;;6.77;;
1837;SDS011;918;50.796;6.772;2023-05-07T02:50:57;7.83;;;7.23;;
1837;SDS011;918;50.796;6.772;2023-05-07T02:53:23;7.47;;;6.80;;
1837;SDS011;918;50.796;6.772;2023-05-07T02:55:51;7.17;;;6.67;;
1837;SDS011;918;50.796;6.772;2023-05-07T02:58:16;6.50;;;6.00;;
1837;SDS011;918;50.796;6.772;2023-05-07T03:00:42;5.80;;;5.30;;
1837;SDS011;918;50.796;6.772;2023-05-07T03:03:07;7.20;;;6.60;;
1837;SDS011;918;50.796;6.772;2023-05-07T03:05:32;6.20;;;5.80;;
1837;SDS011;918;50.796;6.772;2023-05-07T03:07:57;6.60;;;6.10;;
1837;SDS011;918;50.796;6.772;2023-05-07T03:10:23;6.53;;;6.00;;
1837;SDS011;918;50.796;6.772;2023-05-07T03:12:48;6.10;;;5.70;;
1837;SDS011;918;50.796;6.772;2023-05-07T03:15:13;5.70;;;5.30;;
1837;SDS011;918;50.796;6.772;2023-05-07T03:17:38;5.50;;;5.10;;
1837;SDS011;918;50.796;6.772;2023-05-07T03:20:04;4.80;;;4.50;;
1837;SDS011;918;50.796;6.772;2023-05-07T03:22:30;5.13;;;4.83;;
1837;SDS011;918;50.796;6.772;2023-05-07T03:24:55;7.00;;;5.47;;
1837;SDS011;918;50.796;6.772;2023-05-07T03:27:20;5.23;;;4.93;;
1837;SDS011;918;50.796;6.772;2023-05-07T03:29:45;4.93;;;4.63;;
1837;SDS011;918;50.796;6.772;2023-05-07T03:32:11;5.57;;;5.17;;
1837;SDS011;918;50.796;6.772;2023-05-07T03:34:36;6.70;;;6.30;;
1837;SDS011;918;50.796;6.772;2023-05-07T03:37:01;6.03;;;5.63;;
1837;SDS011;918;50.796;6.772;2023-05-07T03:39:26;5.53;;;5.13;;
1837;SDS011;918;50.796;6.772;2023-05-07T03:41:52;5.40;;;5.00;;
1837;SDS011;918;50.796;6.772;2023-05-07T03:44:17;4.93;;;4.63;;
1837;SDS011;918;50.796;6.772;2023-05-07T03:46:43;6.00;;;5.47;;
1837;SDS011;918;50.796;6.772;2023-05-07T03:49:08;7.10;;;6.50;;
1837;SDS011;918;50.796;6.772;2023-05-07T03:51:33;6.80;;;6.30;;
1837;SDS011;918;50.796;6.772;2023-05-07T03:53:58;5.97;;;5.57;;
1837;SDS011;918;50.796;6.772;2023-05-07T03:56:23;7.00;;;6.50;;
1837;SDS011;918;50.796;6.772;2023-05-07T03:58:51;8.67;;;7.83;;
1837;SDS011;918;50.796;6.772;2023-05-07T04:01:17;9.53;;;8.60;;
1837;SDS011;918;50.796;6.772;2023-05-07T04:03:42;9.53;;;8.67;;
1837;SDS011;918;50.796;6.772;2023-05-07T04:06:07;9.97;;;8.83;;
1837;SDS011;918;50.796;6.772;2023-05-07T04:08:32;7.87;;;7.27;;
1837;SDS011;918;50.796;6.772;2023-05-07T04:10:58;9.43;;;8.40;;
1837;SDS011;918;50.796;6.772;2023-05-07T04:13:23;8.50;;;7.80;;
1837;SDS011;918;50.796;6.772;2023-05-07T04:15:50;7.77;;;7.07;;
1837;SDS011;918;50.796;6.772;2023-05-07T04:18:16;8.70;;;7.90;;
1837;SDS011;918;50.796;6.772;2023-05-07T04:20:41;8.70;;;7.90;;
1837;SDS011;918;50.796;6.772;2023-05-07T04:23:07;7.27;;;6.67;;
1837;SDS011;918;50.796;6.772;2023-05-07T04:25:32;6.53;;;6.03;;
1837;SDS011;918;50.796;6.772;2023-05-07T04:27:58;6.33;;;5.83;;
1837;SDS011;918;50.796;6.772;2023-05-07T04:30:23;7.57;;;6.97;;
1837;SDS011;918;50.796;6.772;2023-05-07T04:32:48;7.10;;;6.40;;
1837;SDS011;918;50.796;6.772;2023-05-07T04:35:14;7.40;;;6.80;;
1837;SDS011;918;50.796;6.772;2023-05-07T04:37:39;7.40;;;6.90;;
1837;SDS011;918;50.796;6.772;2023-05-07T04:40:05;7.87;;;7.27;;
1837;SDS011;918;50.796;6.772;2023-05-07T04:42:31;8.83;;;8.03;;
1837;SDS011;918;50.796;6.772;2023-05-07T04:44:56;9.03;;;8.23;;
1837;SDS011;918;50.796;6.772;2023-05-07T04:47:21;8.10;;;7.40;;
1837;SDS011;918;50.796;6.772;2023-05-07T04:49:46;9.00;;;8.20;;
1837;SDS011;918;50.796;6.772;2023-05-07T04:52:11;8.70;;;7.90;;
1837;SDS011;918;50.796;6.772;2023-05-07T04:54:37;8.13;;;7.50;;
1837;SDS011;918;50.796;6.772;2023-05-07T04:57:03;9.80;;;8.90;;
1837;SDS011;918;50.796;6.772;2023-05-07T04:59:29;8.50;;;7.80;;
1837;SDS011;918;50.796;6.772;2023-05-07T05:01:55;8.47;;;7.60;;
1837;SDS011;918;50.796;6.772;2023-05-07T05:04:20;7.90;;;7.20;;
1837;SDS011;918;50.796;6.772;2023-05-07T05:06:45;7.07;;;6.47;;
1837;SDS011;918;50.796;6.772;2023-05-07T05:09:10;7.07;;;6.47;;
1837;SDS011;918;50.796;6.772;2023-05-07T05:11:36;8.57;;;7.80;;
1837;SDS011;918;50.796;6.772;2023-05-07T05:14:01;7.30;;;6.70;;
1837;SDS011;918;50.796;6.772;2023-05-07T05:16:26;7.13;;;6.60;;
1837;SDS011;918;50.796;6.772;2023-05-07T05:18:52;7.03;;;6.43;;
1837;SDS011;918;50.796;6.772;2023-05-07T05:21:19;6.63;;;6.03;;
1837;SDS011;918;50.796;6.772;2023-05-07T05:23:44;6.60;;;5.80;;
1837;SDS011;918;50.796;6.772;2023-05-07T05:26:09;5.70;;;5.30;;
1837;SDS011;918;50.796;6.772;2023-05-07T05:28:35;6.20;;;5.80;;
1837;SDS011;918;50.796;6.772;2023-05-07T05:31:00;6.60;;;6.10;;
1837;SDS011;918;50.796;6.772;2023-05-07T05:33:25;5.57;;;5.10;;
1837;SDS011;918;50.796;6.772;2023-05-07T05:35:51;5.63;;;5.13;;
1837;SDS011;918;50.796;6.772;2023-05-07T05:38:16;5.37;;;4.87;;
1837;SDS011;918;50.796;6.772;2023-05-07T05:40:41;4.70;;;4.37;;
1837;SDS011;918;50.796;6.772;2023-05-07T05:43:06;5.53;;;5.03;;
1837;SDS011;918;50.796;6.772;2023-05-07T05:45:32;4.73;;;4.43;;
1837;SDS011;918;50.796;6.772;2023-05-07T05:47:57;5.27;;;4.87;;
1837;SDS011;918;50.796;6.772;2023-05-07T05:50:22;4.33;;;4.03;;
1837;SDS011;918;50.796;6.772;2023-05-07T05:52:48;4.10;;;3.80;;
1837;SDS011;918;50.796;6.772;2023-05-07T05:55:13;4.90;;;4.50;;
1837;SDS011;918;50.796;6.772;2023-05-07T05:57:39;5.20;;;4.70;;
1837;SDS011;918;50.796;6.772;2023-05-07T06:00:05;4.97;;;4.67;;
1837;SDS011;918;50.796;6.772;2023-05-07T06:02:31;5.60;;;5.20;;
1837;SDS011;918;50.796;6.772;2023-05-07T06:04:57;6.47;;;6.07;;
1837;SDS011;918;50.796;6.772;2023-05-07T06:07:22;7.13;;;6.33;;
1837;SDS011;918;50.796;6.772;2023-05-07T06:09:47;6.10;;;5.70;;
1837;SDS011;918;50.796;6.772;2023-05-07T06:12:12;5.90;;;5.50;;
1837;SDS011;918;50.796;6.772;2023-05-07T06:14:37;7.00;;;6.30;;
1837;SDS011;918;50.796;6.772;2023-05-07T06:17:03;6.20;;;5.60;;
1837;SDS011;918;50.796;6.772;2023-05-07T06:19:28;6.97;;;6.43;;
1837;SDS011;918;50.796;6.772;2023-05-07T06:21:54;7.13;;;6.70;;
1837;SDS011;918;50.796;6.772;2023-05-07T06:24:21;6.83;;;6.23;;
1837;SDS011;918;50.796;6.772;2023-05-07T06:26:46;6.70;;;6.30;;
1837;SDS011;918;50.796;6.772;2023-05-07T06:29:11;6.87;;;6.30;;
1837;SDS011;918;50.796;6.772;2023-05-07T06:31:36;7.20;;;6.60;;
1837;SDS011;918;50.796;6.772;2023-05-07T06:34:02;6.80;;;6.30;;
1837;SDS011;918;50.796;6.772;2023-05-07T06:36:27;6.13;;;5.53;;
1837;SDS011;918;50.796;6.772;2023-05-07T06:38:53;6.07;;;5.57;;
1837;SDS011;918;50.796;6.772;2023-05-07T06:41:18;5.47;;;5.07;;
1837;SDS011;918;50.796;6.772;2023-05-07T06:43:43;5.60;;;5.20;;
1837;SDS011;918;50.796;6.772;2023-05-07T06:46:09;5.30;;;4.90;;
1837;SDS011;918;50.796;6.772;2023-05-07T06:48:34;5.50;;;5.10;;
1837;SDS011;918;50.796;6.772;2023-05-07T06:50:59;4.70;;;4.30;;
1837;SDS011;918;50.796;6.772;2023-05-07T06:53:24;5.43;;;5.03;;
1837;SDS011;918;50.796;6.772;2023-05-07T06:55:50;4.90;;;4.50;;
1837;SDS011;918;50.796;6.772;2023-05-07T06:58:17;6.10;;;4.80;;
1837;SDS011;918;50.796;6.772;2023-05-07T07:00:42;4.80;;;4.50;;
1837;SDS011;918;50.796;6.772;2023-05-07T07:03:07;4.90;;;4.60;;
1837;SDS011;918;50.796;6.772;2023-05-07T07:05:32;3.40;;;3.20;;
1837;SDS011;918;50.796;6.772;2023-05-07T07:07:58;3.60;;;3.33;;
1837;SDS011;918;50.796;6.772;2023-05-07T07:10:23;3.70;;;3.40;;
1837;SDS011;918;50.796;6.772;2023-05-07T07:12:49;3.30;;;3.00;;
1837;SDS011;918;50.796;6.772;2023-05-07T07:15:14;3.23;;;3.00;;
1837;SDS011;918;50.796;6.772;2023-05-07T07:17:40;2.83;;;2.63;;
1837;SDS011;918;50.796;6.772;2023-05-07T07:20:05;3.43;;;3.23;;
1837;SDS011;918;50.796;6.772;2023-05-07T07:22:31;3.10;;;2.90;;
1837;SDS011;918;50.796;6.772;2023-05-07T07:24:56;3.27;;;2.97;;
1837;SDS011;918;50.796;6.772;2023-05-07T07:27:22;3.00;;;2.77;;
1837;SDS011;918;50.796;6.772;2023-05-07T07:29:47;3.00;;;2.70;;
1837;SDS011;918;50.796;6.772;2023-05-07T07:32:12;2.93;;;2.73;;
1837;SDS011;918;50.796;6.772;2023-05-07T07:34:38;3.13;;;2.93;;
1837;SDS011;918;50.796;6.772;2023-05-07T07:37:03;2.63;;;2.43;;
1837;SDS011;918;50.796;6.772;2023-05-07T07:39:31;3.40;;;3.20;;
1837;SDS011;918;50.796;6.772;2023-05-07T07:41:57;3.20;;;3.00;;
1837;SDS011;918;50.796;6.772;2023-05-07T07:44:22;2.80;;;2.60;;
1837;SDS011;918;50.796;6.772;2023-05-07T07:46:47;3.97;;;2.77;;
1837;SDS011;918;50.796;6.772;2023-05-07T07:49:12;2.73;;;2.63;;
1837;SDS011;918;50.796;6.772;2023-05-07T07:51:38;2.90;;;2.70;;
1837;SDS011;918;50.796;6.772;2023-05-07T07:54:03;2.93;;;2.70;;
1837;SDS011;918;50.796;6.772;2023-05-07T07:56:28;2.80;;;2.60;;
1837;SDS011;918;50.796;6.772;2023-05-07T07:58:53;3.77;;;2.87;;
1837;SDS011;918;50.796;6.772;2023-05-07T08:01:19;3.57;;;3.27;;
1837;SDS011;918;50.796;6.772;2023-05-07T08:03:44;3.47;;;3.17;;
1837;SDS011;918;50.796;6.772;2023-05-07T08:06:11;3.23;;;2.93;;
1837;SDS011;918;50.796;6.772;2023-05-07T08:08:36;2.83;;;2.63;;
1837;SDS011;918;50.796;6.772;2023-05-07T08:11:01;3.33;;;3.03;;
1837;SDS011;918;50.796;6.772;2023-05-07T08:13:27;3.00;;;2.80;;
1837;SDS011;918;50.796;6.772;2023-05-07T08:15:52;2.73;;;2.53;;
1837;SDS011;918;50.796;6.772;2023-05-07T08:18:17;3.30;;;2.57;;
1837;SDS011;918;50.796;6.772;2023-05-07T08:20:43;3.17;;;2.87;;
1837;SDS011;918;50.796;6.772;2023-05-07T08:23:08;2.60;;;2.40;;
1837;SDS011;918;50.796;6.772;2023-05-07T08:25:33;3.37;;;3.10;;
1837;SDS011;918;50.796;6.772;2023-05-07T08:27:59;3.10;;;2.90;;
1837;SDS011;918;50.796;6.772;2023-05-07T08:30:25;2.60;;;2.40;;
1837;SDS011;918;50.796;6.772;2023-05-07T08:32:50;2.73;;;2.53;;
1837;SDS011;918;50.796;6.772;2023-05-07T08:35:15;3.50;;;2.90;;
1837;SDS011;918;50.796;6.772;2023-05-07T08:37:40;4.13;;;3.00;;
1837;SDS011;918;50.796;6.772;2023-05-07T08:40:06;3.50;;;2.40;;
1837;SDS011;918;50.796;6.772;2023-05-07T08:42:34;3.87;;;2.53;;
1837;SDS011;918;50.796;6.772;2023-05-07T08:45:00;3.10;;;2.23;;
1837;SDS011;918;50.796;6.772;2023-05-07T08:47:32;2.50;;;2.40;;
1837;SDS011;918;50.796;6.772;2023-05-07T08:50:01;2.30;;;2.10;;
1837;SDS011;918;50.796;6.772;2023-05-07T08:52:27;2.40;;;2.20;;
1837;SDS011;918;50.796;6.772;2023-05-07T08:54:52;2.90;;;2.33;;
1837;SDS011;918;50.796;6.772;2023-05-07T08:57:17;4.13;;;2.33;;
1837;SDS011;918;50.796;6.772;2023-05-07T08:59:44;2.77;;;2.57;;
1837;SDS011;918;50.796;6.772;2023-05-07T09:02:10;3.13;;;2.33;;
1837;SDS011;918;50.796;6.772;2023-05-07T09:04:36;2.30;;;2.20;;
1837;SDS011;918;50.796;6.772;2023-05-07T09:07:01;1.80;;;1.70;;
1837;SDS011;918;50.796;6.772;2023-05-07T09:09:31;2.77;;;2.57;;
1837;SDS011;918;50.796;6.772;2023-05-07T09:11:57;2.57;;;2.37;;
1837;SDS011;918;50.796;6.772;2023-05-07T09:14:26;2.10;;;2.00;;
1837;SDS011;918;50.796;6.772;2023-05-07T09:16:52;2.50;;;2.30;;
1837;SDS011;918;50.796;6.772;2023-05-07T09:19:22;2.20;;;2.10;;
1837;SDS011;918;50.796;6.772;2023-05-07T09:22:00;2.60;;;2.40;;
1837;SDS011;918;50.796;6.772;2023-05-07T09:24:26;1.93;;;1.83;;
1837;SDS011;918;50.796;6.772;2023-05-07T09:26:53;2.37;;;2.20;;
1837;SDS011;918;50.796;6.772;2023-05-07T09:29:19;2.40;;;2.20;;
1837;SDS011;918;50.796;6.772;2023-05-07T09:31:44;2.40;;;2.20;;
1837;SDS011;918;50.796;6.772;2023-05-07T09:34:09;2.00;;;1.90;;
1837;SDS011;918;50.796;6.772;2023-05-07T09:36:35;2.30;;;2.20;;
1837;SDS011;918;50.796;6.772;2023-05-07T09:39:00;2.20;;;2.10;;
1837;SDS011;918;50.796;6.772;2023-05-07T09:41:25;2.50;;;2.30;;
1837;SDS011;918;50.796;6.772;2023-05-07T09:43:54;2.70;;;2.50;;
1837;SDS011;918;50.796;6.772;2023-05-07T09:46:20;2.00;;;1.90;;
1837;SDS011;918;50.796;6.772;2023-05-07T09:48:56;2.77;;;2.63;;
1837;SDS011;918;50.796;6.772;2023-05-07T09:51:24;2.97;;;2.63;;
1837;SDS011;918;50.796;6.772;2023-05-07T09:53:52;3.63;;;2.47;;
1837;SDS011;918;50.796;6.772;2023-05-07T09:56:18;2.60;;;2.40;;
1837;SDS011;918;50.796;6.772;2023-05-07T09:58:45;3.00;;;2.80;;
1837;SDS011;918;50.796;6.772;2023-05-07T10:01:10;3.57;;;2.87;;
1837;SDS011;918;50.796;6.772;2023-05-07T10:03:36;3.10;;;2.20;;
1837;SDS011;918;50.796;6.772;2023-05-07T10:06:05;3.57;;;2.20;;
1837;SDS011;918;50.796;6.772;2023-05-07T10:08:30;2.97;;;2.77;;
1837;SDS011;918;50.796;6.772;2023-05-07T10:10:56;4.83;;;3.43;;
1837;SDS011;918;50.796;6.772;2023-05-07T10:13:21;2.97;;;2.77;;
1837;SDS011;918;50.796;6.772;2023-05-07T10:15:47;2.23;;;2.13;;
1837;SDS011;918;50.796;6.772;2023-05-07T10:18:12;2.97;;;2.67;;
1837;SDS011;918;50.796;6.772;2023-05-07T10:20:38;2.73;;;2.47;;
1837;SDS011;918;50.796;6.772;2023-05-07T10:23:04;3.20;;;3.00;;
1837;SDS011;918;50.796;6.772;2023-05-07T10:25:31;2.50;;;2.40;;
1837;SDS011;918;50.796;6.772;2023-05-07T10:27:59;2.37;;;2.27;;
1837;SDS011;918;50.796;6.772;2023-05-07T10:30:33;2.97;;;2.77;;
1837;SDS011;918;50.796;6.772;2023-05-07T10:33:26;3.37;;;2.70;;
1837;SDS011;918;50.796;6.772;2023-05-07T10:35:52;2.80;;;2.47;;
1837;SDS011;918;50.796;6.772;2023-05-07T10:38:22;2.83;;;2.63;;
1837;SDS011;918;50.796;6.772;2023-05-07T10:40:47;2.37;;;2.27;;
1837;SDS011;918;50.796;6.772;2023-05-07T10:43:12;2.20;;;2.10;;
1837;SDS011;918;50.796;6.772;2023-05-07T10:45:38;2.80;;;2.43;;
1837;SDS011;918;50.796;6.772;2023-05-07T10:50:33;3.00;;;2.63;;
1837;SDS011;918;50.796;6.772;2023-05-07T10:55:42;2.50;;;2.40;;
1837;SDS011;918;50.796;6.772;2023-05-07T11:01:02;4.23;;;2.37;;
1837;SDS011;918;50.796;6.772;2023-05-07T11:03:28;4.00;;;2.63;;
1837;SDS011;918;50.796;6.772;2023-05-07T11:06:10;2.60;;;2.40;;
1837;SDS011;918;50.796;6.772;2023-05-07T11:11:16;2.43;;;2.33;;
1837;SDS011;918;50.796;6.772;2023-05-07T11:13:42;2.50;;;2.30;;
1837;SDS011;918;50.796;6.772;2023-05-07T11:16:16;2.43;;;2.33;;
1837;SDS011;918;50.796;6.772;2023-05-07T11:18:46;2.20;;;2.10;;
1837;SDS011;918;50.796;6.772;2023-05-07T11:24:13;2.37;;;2.17;;
1837;SDS011;918;50.796;6.772;2023-05-07T11:26:44;2.40;;;2.27;;
1837;SDS011;918;50.796;6.772;2023-05-07T11:29:14;2.30;;;2.20;;
1837;SDS011;918;50.796;6.772;2023-05-07T11:31:50;2.30;;;2.20;;
1837;SDS011;918;50.796;6.772;2023-05-07T11:34:20;2.30;;;2.10;;
1837;SDS011;918;50.796;6.772;2023-05-07T11:36:46;2.17;;;1.97;;
1837;SDS011;918;50.796;6.772;2023-05-07T11:39:28;2.50;;;2.00;;
1837;SDS011;918;50.796;6.772;2023-05-07T11:41:55;1.83;;;1.70;;
1837;SDS011;918;50.796;6.772;2023-05-07T11:44:20;2.63;;;1.90;;
1837;SDS011;918;50.796;6.772;2023-05-07T11:46:46;2.27;;;2.07;;
1837;SDS011;918;50.796;6.772;2023-05-07T11:49:11;2.17;;;1.97;;
1837;SDS011;918;50.796;6.772;2023-05-07T11:51:36;2.30;;;2.20;;
1837;SDS011;918;50.796;6.772;2023-05-07T11:54:05;2.07;;;1.93;;
1837;SDS011;918;50.796;6.772;2023-05-07T11:56:33;1.80;;;1.70;;
1837;SDS011;918;50.796;6.772;2023-05-07T11:58:59;1.97;;;1.87;;
1837;SDS011;918;50.796;6.772;2023-05-07T12:01:24;2.10;;;2.00;;
1837;SDS011;918;50.796;6.772;2023-05-07T12:03:50;2.03;;;1.93;;
1837;SDS011;918;50.796;6.772;2023-05-07T12:06:15;2.53;;;2.20;;
1837;SDS011;918;50.796;6.772;2023-05-07T12:08:41;2.40;;;2.30;;
1837;SDS011;918;50.796;6.772;2023-05-07T12:11:08;2.30;;;2.10;;
1837;SDS011;918;50.796;6.772;2023-05-07T12:13:36;2.07;;;1.83;;
1837;SDS011;918;50.796;6.772;2023-05-07T12:16:01;1.90;;;1.80;;
1837;SDS011;918;50.796;6.772;2023-05-07T12:18:29;2.10;;;1.90;;
1837;SDS011;918;50.796;6.772;2023-05-07T12:20:55;2.07;;;1.93;;
1837;SDS011;918;50.796;6.772;2023-05-07T12:23:21;2.63;;;2.20;;
1837;SDS011;918;50.796;6.772;2023-05-07T12:25:47;1.77;;;1.67;;
1837;SDS011;918;50.796;6.772;2023-05-07T12:28:13;2.23;;;2.03;;
1837;SDS011;918;50.796;6.772;2023-05-07T12:30:40;2.60;;;2.40;;
1837;SDS011;918;50.796;6.772;2023-05-07T12:33:07;2.33;;;2.23;;
1837;SDS011;918;50.796;6.772;2023-05-07T12:35:36;3.40;;;2.93;;
1837;SDS011;918;50.796;6.772;2023-05-07T12:38:04;3.27;;;2.60;;
1837;SDS011;918;50.796;6.772;2023-05-07T12:40:45;2.50;;;2.30;;
1837;SDS011;918;50.796;6.772;2023-05-07T12:43:15;3.03;;;2.83;;
1837;SDS011;918;50.796;6.772;2023-05-07T12:45:50;2.70;;;2.50;;
1837;SDS011;918;50.796;6.772;2023-05-07T12:48:16;2.50;;;2.30;;
1837;SDS011;918;50.796;6.772;2023-05-07T12:50:42;3.13;;;2.63;;
1837;SDS011;918;50.796;6.772;2023-05-07T12:53:09;3.13;;;2.60;;
1837;SDS011;918;50.796;6.772;2023-05-07T12:55:45;3.00;;;2.90;;
1837;SDS011;918;50.796;6.772;2023-05-07T12:58:19;3.03;;;2.80;;
1837;SDS011;918;50.796;6.772;2023-05-07T13:00:52;3.67;;;3.37;;
1837;SDS011;918;50.796;6.772;2023-05-07T13:03:25;4.50;;;4.20;;
1837;SDS011;918;50.796;6.772;2023-05-07T13:05:51;4.30;;;3.97;;
1837;SDS011;918;50.796;6.772;2023-05-07T13:08:23;4.40;;;4.00;;
1837;SDS011;918;50.796;6.772;2023-05-07T13:10:49;6.20;;;4.23;;
1837;SDS011;918;50.796;6.772;2023-05-07T13:13:14;4.03;;;3.73;;
1837;SDS011;918;50.796;6.772;2023-05-07T13:15:40;5.83;;;4.03;;
1837;SDS011;918;50.796;6.772;2023-05-07T13:18:05;3.80;;;3.50;;
1837;SDS011;918;50.796;6.772;2023-05-07T13:20:30;5.20;;;4.63;;
1837;SDS011;918;50.796;6.772;2023-05-07T13:22:55;4.73;;;4.33;;
1837;SDS011;918;50.796;6.772;2023-05-07T13:25:21;4.90;;;4.50;;
1837;SDS011;918;50.796;6.772;2023-05-07T13:27:46;6.00;;;4.37;;
1837;SDS011;918;50.796;6.772;2023-05-07T13:30:11;4.10;;;3.80;;
1837;SDS011;918;50.796;6.772;2023-05-07T13:32:36;4.70;;;4.10;;
1837;SDS011;918;50.796;6.772;2023-05-07T13:35:02;4.50;;;4.00;;
1837;SDS011;918;50.796;6.772;2023-05-07T13:37:28;4.10;;;3.80;;
1837;SDS011;918;50.796;6.772;2023-05-07T13:39:53;4.20;;;4.00;;
1837;SDS011;918;50.796;6.772;2023-05-07T13:42:18;5.43;;;4.93;;
1837;SDS011;918;50.796;6.772;2023-05-07T13:44:44;5.07;;;4.57;;
1837;SDS011;918;50.796;6.772;2023-05-07T13:47:09;4.83;;;4.53;;
1837;SDS011;918;50.796;6.772;2023-05-07T13:49:34;4.20;;;3.90;;
1837;SDS011;918;50.796;6.772;2023-05-07T13:52:00;4.87;;;4.53;;
1837;SDS011;918;50.796;6.772;2023-05-07T13:54:25;5.70;;;5.20;;
1837;SDS011;918;50.796;6.772;2023-05-07T13:56:50;4.77;;;4.30;;
1837;SDS011;918;50.796;6.772;2023-05-07T13:59:15;4.80;;;4.50;;
1837;SDS011;918;50.796;6.772;2023-05-07T14:01:41;5.80;;;5.30;;
1837;SDS011;918;50.796;6.772;2023-05-07T14:04:06;5.00;;;4.60;;
1837;SDS011;918;50.796;6.772;2023-05-07T14:06:32;4.83;;;4.43;;
1837;SDS011;918;50.796;6.772;2023-05-07T14:08:57;4.80;;;4.43;;
1837;SDS011;918;50.796;6.772;2023-05-07T14:11:23;5.60;;;5.27;;
1837;SDS011;918;50.796;6.772;2023-05-07T14:13:48;6.20;;;5.70;;
1837;SDS011;918;50.796;6.772;2023-05-07T14:16:13;5.80;;;5.37;;
1837;SDS011;918;50.796;6.772;2023-05-07T14:18:39;5.60;;;5.20;;
1837;SDS011;918;50.796;6.772;2023-05-07T14:21:05;6.30;;;5.90;;
1837;SDS011;918;50.796;6.772;2023-05-07T14:23:34;6.90;;;6.40;;
1837;SDS011;918;50.796;6.772;2023-05-07T14:26:00;7.10;;;5.93;;
1837;SDS011;918;50.796;6.772;2023-05-07T14:28:25;5.90;;;5.50;;
1837;SDS011;918;50.796;6.772;2023-05-07T14:30:50;6.63;;;6.10;;
1837;SDS011;918;50.796;6.772;2023-05-07T14:33:15;6.20;;;5.67;;
1837;SDS011;918;50.796;6.772;2023-05-07T14:35:42;5.73;;;5.30;;
1837;SDS011;918;50.796;6.772;2023-05-07T14:38:12;5.10;;;4.57;;
1837;SDS011;918;50.796;6.772;2023-05-07T14:40:37;3.87;;;3.67;;
1837;SDS011;918;50.796;6.772;2023-05-07T14:43:02;3.67;;;3.43;;
1837;SDS011;918;50.796;6.772;2023-05-07T14:45:27;4.00;;;3.70;;
1837;SDS011;918;50.796;6.772;2023-05-07T14:47:53;2.80;;;2.70;;
1837;SDS011;918;50.796;6.772;2023-05-07T14:50:18;3.13;;;2.93;;
1837;SDS011;918;50.796;6.772;2023-05-07T14:52:43;3.03;;;2.67;;
1837;SDS011;918;50.796;6.772;2023-05-07T14:55:09;3.20;;;2.90;;
1837;SDS011;918;50.796;6.772;2023-05-07T14:57:34;3.77;;;2.60;;
1837;SDS011;918;50.796;6.772;2023-05-07T15:00:00;2.10;;;2.00;;
1837;SDS011;918;50.796;6.772;2023-05-07T15:02:26;2.77;;;2.23;;
1837;SDS011;918;50.796;6.772;2023-05-07T15:04:52;1.87;;;1.77;;
1837;SDS011;918;50.796;6.772;2023-05-07T15:07:17;1.90;;;1.80;;
1837;SDS011;918;50.796;6.772;2023-05-07T15:09:43;2.57;;;2.47;;
1837;SDS011;918;50.796;6.772;2023-05-07T15:12:09;2.40;;;2.20;;
1837;SDS011;918;50.796;6.772;2023-05-07T15:14:34;1.80;;;1.70;;
1837;SDS011;918;50.796;6.772;2023-05-07T15:16:59;2.23;;;2.03;;
1837;SDS011;918;50.796;6.772;2023-05-07T15:19:25;2.27;;;2.13;;
1837;SDS011;918;50.796;6.772;2023-05-07T15:21:54;1.67;;;1.57;;
1837;SDS011;918;50.796;6.772;2023-05-07T15:24:22;2.30;;;2.10;;
1837;SDS011;918;50.796;6.772;2023-05-07T15:26:48;1.70;;;1.60;;
1837;SDS011;918;50.796;6.772;2023-05-07T15:29:13;2.33;;;2.23;;
1837;SDS011;918;50.796;6.772;2023-05-07T15:31:38;2.70;;;2.17;;
1837;SDS011;918;50.796;6.772;2023-05-07T15:34:04;3.10;;;2.27;;
1837;SDS011;918;50.796;6.772;2023-05-07T15:36:29;3.80;;;2.70;;